Time;durP1;ratioP1;P1;durP2;ratioP2;P2;SDS_P1;SDS_P2;PMS_P1;PMS_P2;Temp;Humidity;BMP_temperature;BMP_pressure;BME280_temperature;BME280_humidity;BME280_pressure;Samples;Min_cycle;Max_cycle;Signal;HPM_P1;HPM_P2
2021/10/07 00:01:36;;;;;;;0.82;0.82;;;12.60;99.90;;;;;;4964564;28;20639;-70
2021/10/07 00:04:04;;;;;;;1.00;1.00;;;12.60;99.90;;;;;;4957262;28;20242;-70
2021/10/07 00:06:31;;;;;;;0.75;0.75;;;12.50;99.90;;;;;;4957671;28;20233;-70
2021/10/07 00:08:58;;;;;;;0.82;0.82;;;12.50;99.90;;;;;;4967276;28;20237;-70
2021/10/07 00:11:25;;;;;;;0.82;0.82;;;12.40;99.90;;;;;;4964223;28;20218;-70
2021/10/07 00:13:52;;;;;;;1.95;0.80;;;12.40;99.90;;;;;;4979516;28;20282;-69
2021/10/07 00:16:20;;;;;;;0.90;0.90;;;12.50;99.90;;;;;;4953435;28;20228;-71
2021/10/07 00:18:49;;;;;;;0.90;0.90;;;12.40;99.90;;;;;;4961105;28;20267;-69
2021/10/07 00:21:18;;;;;;;0.85;0.85;;;12.40;99.90;;;;;;4965540;28;20217;-70
2021/10/07 00:23:56;;;;;;;0.90;0.90;;;12.50;99.90;;;;;;4962570;28;20233;-69
2021/10/07 00:26:23;;;;;;;0.90;0.90;;;12.50;99.90;;;;;;4964382;28;20229;-69
2021/10/07 00:28:51;;;;;;;0.70;0.70;;;12.60;99.90;;;;;;4964151;28;20234;-70
2021/10/07 00:31:22;;;;;;;0.90;0.90;;;12.70;99.90;;;;;;4956047;28;20742;-70
2021/10/07 00:34:05;;;;;;;0.70;0.70;;;12.80;99.90;;;;;;4956831;28;20386;-71
2021/10/07 00:36:40;;;;;;;0.73;0.73;;;12.80;99.90;;;;;;4961236;28;20269;-71
2021/10/07 00:39:06;;;;;;;0.80;0.80;;;12.80;99.90;;;;;;4952531;28;21217;-71
2021/10/07 00:41:35;;;;;;;0.80;0.80;;;12.60;99.90;;;;;;4961705;28;20228;-71
2021/10/07 00:44:06;;;;;;;0.68;0.68;;;12.50;99.90;;;;;;4959328;28;20703;-70
2021/10/07 00:46:45;;;;;;;0.70;0.70;;;12.40;99.90;;;;;;4959247;28;20221;-72
2021/10/07 00:49:12;;;;;;;0.70;0.70;;;12.40;99.90;;;;;;4963190;28;20232;-71
2021/10/07 00:51:39;;;;;;;1.27;0.90;;;12.40;99.90;;;;;;4957208;28;20226;-71
2021/10/07 00:54:07;;;;;;;0.80;0.80;;;12.50;99.90;;;;;;4956547;28;20225;-70
2021/10/07 00:56:35;;;;;;;1.17;1.10;;;12.50;99.90;;;;;;4953938;28;20232;-71
2021/10/07 00:59:02;;;;;;;1.50;1.08;;;12.60;99.90;;;;;;4957785;28;20225;-70
2021/10/07 01:01:29;;;;;;;0.90;0.90;;;12.60;99.90;;;;;;4968408;28;20640;-71
2021/10/07 01:03:58;;;;;;;0.80;0.80;;;12.70;99.90;;;;;;4955901;28;20226;-70
2021/10/07 01:06:25;;;;;;;1.02;1.02;;;12.80;99.90;;;;;;4959761;28;20262;-68
2021/10/07 01:08:52;;;;;;;0.90;0.90;;;12.90;99.90;;;;;;4959296;28;20591;-68
2021/10/07 01:11:19;;;;;;;0.80;0.80;;;12.90;99.90;;;;;;4960687;28;20233;-68
2021/10/07 01:13:46;;;;;;;0.82;0.82;;;12.90;99.90;;;;;;4965983;28;20275;-68
2021/10/07 01:16:16;;;;;;;0.93;0.75;;;12.90;99.90;;;;;;4963611;28;20279;-68
2021/10/07 01:18:43;;;;;;;0.70;0.70;;;12.90;99.90;;;;;;4965146;28;20230;-68
2021/10/07 01:21:14;;;;;;;0.60;0.60;;;12.90;99.90;;;;;;4962167;28;20221;-68
2021/10/07 01:23:42;;;;;;;0.90;0.90;;;12.90;99.90;;;;;;4958801;28;20279;-68
2021/10/07 01:26:09;;;;;;;0.90;0.90;;;12.90;99.90;;;;;;4961882;28;20842;-69
2021/10/07 01:28:38;;;;;;;0.82;0.82;;;13.00;99.90;;;;;;4972930;28;20238;-68
2021/10/07 01:31:05;;;;;;;0.80;0.80;;;13.00;99.90;;;;;;4964010;28;20319;-68
2021/10/07 01:33:32;;;;;;;0.70;0.70;;;12.90;99.90;;;;;;4956208;28;20245;-68
2021/10/07 01:36:00;;;;;;;0.88;0.88;;;12.90;99.90;;;;;;4958466;28;20792;-68
2021/10/07 01:38:28;;;;;;;0.73;0.73;;;12.90;99.90;;;;;;4980054;28;20225;-68
2021/10/07 01:40:56;;;;;;;0.60;0.60;;;13.00;99.90;;;;;;4951954;28;20296;-68
2021/10/07 01:43:23;;;;;;;0.80;0.80;;;13.00;99.90;;;;;;4961126;28;20724;-68
2021/10/07 01:45:51;;;;;;;0.80;0.80;;;12.90;99.90;;;;;;4959830;28;20360;-69
2021/10/07 01:48:19;;;;;;;0.80;0.80;;;12.90;99.90;;;;;;4953543;28;20226;-69
2021/10/07 01:50:47;;;;;;;0.80;0.80;;;12.80;99.90;;;;;;4963549;28;20230;-69
2021/10/07 01:53:14;;;;;;;0.73;0.73;;;12.70;99.90;;;;;;4955327;28;20723;-70
2021/10/07 01:55:42;;;;;;;1.02;0.93;;;12.70;99.90;;;;;;4969983;28;20233;-69
2021/10/07 01:58:09;;;;;;;0.98;0.98;;;12.80;99.90;;;;;;4961570;28;20279;-69
2021/10/07 02:00:37;;;;;;;0.80;0.80;;;12.90;99.90;;;;;;4964694;28;20279;-68
2021/10/07 02:03:04;;;;;;;0.73;0.73;;;12.90;99.90;;;;;;4961818;28;20236;-69
2021/10/07 02:05:31;;;;;;;0.88;0.70;;;12.90;99.90;;;;;;4958678;28;20222;-68
2021/10/07 02:07:58;;;;;;;0.70;0.70;;;12.90;99.90;;;;;;4960972;28;20286;-68
2021/10/07 02:10:25;;;;;;;0.80;0.80;;;12.90;99.90;;;;;;4966601;28;20236;-68
2021/10/07 02:12:53;;;;;;;0.90;0.90;;;12.90;99.90;;;;;;4960269;28;20217;-69
2021/10/07 02:15:20;;;;;;;0.77;0.77;;;12.90;99.90;;;;;;4957947;28;20884;-69
2021/10/07 02:17:48;;;;;;;0.57;0.57;;;12.90;99.90;;;;;;4963566;28;20233;-68
2021/10/07 02:20:15;;;;;;;0.70;0.70;;;12.80;99.90;;;;;;4960801;28;20345;-69
2021/10/07 02:22:42;;;;;;;0.70;0.70;;;12.70;99.90;;;;;;4972070;28;20290;-68
2021/10/07 02:25:10;;;;;;;1.60;0.90;;;12.70;99.90;;;;;;4991702;28;20291;-69
2021/10/07 02:27:37;;;;;;;0.80;0.80;;;12.60;99.90;;;;;;4963987;28;20238;-68
2021/10/07 02:30:10;;;;;;;0.77;0.77;;;12.60;99.90;;;;;;4961451;28;20276;-68
2021/10/07 02:32:37;;;;;;;0.90;0.90;;;12.60;99.90;;;;;;5038414;28;20273;-68
2021/10/07 02:35:06;;;;;;;0.70;0.70;;;12.60;99.90;;;;;;4963945;28;20230;-68
2021/10/07 02:37:33;;;;;;;0.90;0.90;;;12.60;99.90;;;;;;4971365;28;20309;-68
2021/10/07 02:40:03;;;;;;;0.80;0.80;;;12.70;99.90;;;;;;4965249;28;20222;-69
2021/10/07 02:42:30;;;;;;;0.55;0.55;;;12.80;99.90;;;;;;4971704;28;20231;-69
2021/10/07 02:44:57;;;;;;;0.88;0.88;;;12.80;99.90;;;;;;4966471;28;20280;-68
2021/10/07 02:47:25;;;;;;;0.70;0.70;;;12.80;99.90;;;;;;4961585;28;20745;-69
2021/10/07 02:49:52;;;;;;;0.60;0.60;;;12.80;99.90;;;;;;4966232;28;20220;-68
2021/10/07 02:52:19;;;;;;;0.80;0.80;;;12.70;99.90;;;;;;4954807;28;20236;-68
2021/10/07 02:54:46;;;;;;;0.60;0.60;;;12.60;99.90;;;;;;4964807;28;20641;-68
2021/10/07 02:57:13;;;;;;;0.77;0.77;;;12.50;99.90;;;;;;4961997;28;20226;-68
2021/10/07 02:59:40;;;;;;;0.70;0.70;;;12.50;99.90;;;;;;4974046;28;20238;-72
2021/10/07 03:02:07;;;;;;;0.80;0.80;;;12.50;99.90;;;;;;4964788;28;20233;-68
2021/10/07 03:04:36;;;;;;;0.90;0.90;;;12.50;99.90;;;;;;4964413;28;20801;-69
2021/10/07 03:07:03;;;;;;;0.70;0.70;;;12.60;99.90;;;;;;4961662;28;20268;-68
2021/10/07 03:09:30;;;;;;;0.82;0.82;;;12.80;99.90;;;;;;4955945;28;20283;-69
2021/10/07 03:11:57;;;;;;;0.77;0.77;;;12.90;99.90;;;;;;4972271;28;20569;-68
2021/10/07 03:14:24;;;;;;;0.80;0.80;;;13.00;99.90;;;;;;4957199;28;20219;-69
2021/10/07 03:16:51;;;;;;;0.70;0.70;;;13.00;99.90;;;;;;4967829;28;20657;-68
2021/10/07 03:19:18;;;;;;;0.80;0.80;;;13.00;99.90;;;;;;4961998;28;20240;-68
2021/10/07 03:21:47;;;;;;;0.90;0.90;;;13.10;99.90;;;;;;4967215;28;20233;-69
2021/10/07 03:24:14;;;;;;;0.70;0.70;;;13.10;99.90;;;;;;4972517;28;20225;-70
2021/10/07 03:26:41;;;;;;;0.82;0.82;;;13.00;99.90;;;;;;4959851;28;20248;-68
2021/10/07 03:29:08;;;;;;;0.80;0.80;;;13.00;99.90;;;;;;4968901;28;20305;-68
2021/10/07 03:31:35;;;;;;;1.13;0.80;;;12.80;99.90;;;;;;4959862;28;20233;-68
2021/10/07 03:34:02;;;;;;;0.90;0.90;;;12.60;99.90;;;;;;4969655;28;20643;-68
2021/10/07 03:36:29;;;;;;;0.88;0.88;;;12.40;99.90;;;;;;4960078;28;20821;-67
2021/10/07 03:38:58;;;;;;;0.70;0.70;;;12.40;99.90;;;;;;4961772;28;20308;-68
2021/10/07 03:41:25;;;;;;;0.82;0.82;;;12.50;99.90;;;;;;4963064;28;20221;-68
2021/10/07 03:43:52;;;;;;;1.13;1.10;;;12.60;99.90;;;;;;4969531;28;20264;-70
2021/10/07 03:46:19;;;;;;;0.80;0.80;;;12.70;99.90;;;;;;4959257;28;20241;-67
2021/10/07 03:48:46;;;;;;;0.80;0.80;;;12.80;99.90;;;;;;4963936;28;20230;-68
2021/10/07 03:51:14;;;;;;;0.80;0.80;;;12.90;99.90;;;;;;4962982;28;20225;-69
2021/10/07 03:53:41;;;;;;;1.25;1.13;;;12.90;99.90;;;;;;4961998;28;20226;-68
2021/10/07 03:56:09;;;;;;;0.82;0.82;;;12.90;99.90;;;;;;4964841;28;20252;-68
2021/10/07 03:58:36;;;;;;;0.80;0.80;;;12.80;99.90;;;;;;4966577;28;20975;-68
2021/10/07 04:01:03;;;;;;;0.90;0.90;;;12.80;99.90;;;;;;4967184;28;20680;-68
2021/10/07 04:03:30;;;;;;;1.00;1.00;;;12.80;99.90;;;;;;4963586;28;20618;-68
2021/10/07 04:05:58;;;;;;;0.60;0.60;;;12.90;99.90;;;;;;4963959;28;20299;-68
2021/10/07 04:08:25;;;;;;;0.80;0.80;;;13.00;99.90;;;;;;4967226;28;20695;-69
2021/10/07 04:10:52;;;;;;;0.90;0.90;;;13.10;99.90;;;;;;4964040;28;20225;-67
2021/10/07 04:13:22;;;;;;;0.90;0.90;;;13.10;99.90;;;;;;4956432;28;20631;-68
2021/10/07 04:15:50;;;;;;;0.82;0.82;;;13.10;99.90;;;;;;4957179;28;20282;-68
2021/10/07 04:18:18;;;;;;;0.70;0.70;;;13.10;99.90;;;;;;4959732;28;20229;-68
2021/10/07 04:20:46;;;;;;;0.70;0.70;;;13.10;99.90;;;;;;4962397;28;20222;-68
2021/10/07 04:23:14;;;;;;;0.70;0.70;;;13.10;99.90;;;;;;4965922;28;20291;-68
2021/10/07 04:25:41;;;;;;;0.95;0.93;;;13.10;99.90;;;;;;4959062;28;20275;-68
2021/10/07 04:28:08;;;;;;;0.80;0.80;;;13.10;99.90;;;;;;4959803;28;20645;-68
2021/10/07 04:30:37;;;;;;;1.27;0.80;;;13.10;99.90;;;;;;4962946;28;20285;-68
2021/10/07 04:33:05;;;;;;;0.82;0.82;;;13.00;99.90;;;;;;4957180;28;20897;-68
2021/10/07 04:35:32;;;;;;;0.85;0.85;;;12.90;99.90;;;;;;4956565;28;20225;-68
2021/10/07 04:37:59;;;;;;;2.63;0.95;;;12.90;99.90;;;;;;4959672;28;20221;-68
2021/10/07 04:40:26;;;;;;;0.75;0.75;;;12.90;99.90;;;;;;4966421;28;20261;-67
2021/10/07 04:42:54;;;;;;;0.80;0.80;;;13.00;99.90;;;;;;4956176;28;20639;-67
2021/10/07 04:45:22;;;;;;;0.73;0.73;;;13.00;99.90;;;;;;4959645;28;20312;-67
2021/10/07 04:47:50;;;;;;;0.77;0.77;;;13.00;99.90;;;;;;4959257;28;20221;-68
2021/10/07 04:50:18;;;;;;;0.77;0.77;;;13.00;99.90;;;;;;4966854;28;20220;-67
2021/10/07 04:52:45;;;;;;;0.90;0.90;;;13.00;99.90;;;;;;4952556;28;20582;-69
2021/10/07 04:55:12;;;;;;;0.80;0.80;;;13.00;99.90;;;;;;4960415;28;20282;-68
2021/10/07 04:57:39;;;;;;;0.90;0.90;;;13.10;99.90;;;;;;4960777;28;20291;-69
2021/10/07 05:00:07;;;;;;;1.00;1.00;;;13.10;99.90;;;;;;4965359;28;20230;-68
2021/10/07 05:02:36;;;;;;;0.75;0.75;;;13.10;99.90;;;;;;4957689;28;20234;-68
2021/10/07 05:05:05;;;;;;;0.93;0.80;;;13.10;99.90;;;;;;4962773;28;20240;-68
2021/10/07 05:07:32;;;;;;;0.80;0.80;;;13.10;99.90;;;;;;4961004;28;20291;-68
2021/10/07 05:09:59;;;;;;;1.27;1.17;;;13.10;99.90;;;;;;4965430;28;20225;-68
2021/10/07 05:12:26;;;;;;;0.88;0.88;;;13.10;99.90;;;;;;4966149;28;20855;-68
2021/10/07 05:14:54;;;;;;;0.80;0.80;;;13.10;99.90;;;;;;4953915;28;20229;-67
2021/10/07 05:17:21;;;;;;;0.80;0.80;;;13.20;99.90;;;;;;4975888;28;20225;-68
2021/10/07 05:19:48;;;;;;;0.70;0.70;;;13.20;99.90;;;;;;4963687;28;20229;-67
2021/10/07 05:22:16;;;;;;;0.88;0.80;;;13.20;99.90;;;;;;4953919;28;20641;-67
2021/10/07 05:24:43;;;;;;;1.00;0.82;;;13.10;99.90;;;;;;4966907;28;20665;-69
2021/10/07 05:27:12;;;;;;;0.90;0.90;;;13.10;99.90;;;;;;4954062;28;20311;-67
2021/10/07 05:29:39;;;;;;;0.68;0.68;;;13.10;99.90;;;;;;4955976;28;20308;-68
2021/10/07 05:32:06;;;;;;;0.90;0.90;;;13.10;99.90;;;;;;4953616;28;22328;-67
2021/10/07 05:34:33;;;;;;;0.93;0.93;;;13.10;99.90;;;;;;4951859;28;20288;-67
2021/10/07 05:37:00;;;;;;;0.80;0.80;;;13.10;99.90;;;;;;4960345;28;20286;-67
2021/10/07 05:39:29;;;;;;;0.70;0.70;;;13.10;99.90;;;;;;4963150;28;20224;-67
2021/10/07 05:41:56;;;;;;;0.77;0.70;;;13.20;99.90;;;;;;4966655;28;20274;-67
2021/10/07 05:44:23;;;;;;;1.05;1.05;;;13.20;99.90;;;;;;4955349;28;20272;-67
2021/10/07 05:46:50;;;;;;;1.00;1.00;;;13.20;99.90;;;;;;4968459;28;20222;-67
2021/10/07 05:49:17;;;;;;;1.00;1.00;;;13.20;99.90;;;;;;4963683;28;20275;-67
2021/10/07 05:51:44;;;;;;;0.82;0.82;;;13.20;99.90;;;;;;4972113;28;20230;-68
2021/10/07 05:54:11;;;;;;;0.82;0.82;;;13.30;99.90;;;;;;4970432;28;20222;-68
2021/10/07 05:56:39;;;;;;;1.67;0.90;;;13.30;99.90;;;;;;4976788;28;20234;-67
2021/10/07 05:59:06;;;;;;;1.20;1.10;;;13.30;99.90;;;;;;4965482;28;20229;-68
2021/10/07 06:01:33;;;;;;;1.92;1.42;;;13.30;99.90;;;;;;4963037;28;20313;-69
2021/10/07 06:04:00;;;;;;;1.02;1.00;;;13.40;99.90;;;;;;4961160;28;20276;-68
2021/10/07 06:06:27;;;;;;;0.90;0.90;;;13.30;99.90;;;;;;4960836;28;20225;-67
2021/10/07 06:08:54;;;;;;;0.80;0.80;;;13.40;99.90;;;;;;4967051;28;20221;-66
2021/10/07 06:11:21;;;;;;;0.90;0.90;;;13.40;99.90;;;;;;4964582;28;20218;-67
2021/10/07 06:13:50;;;;;;;0.90;0.90;;;13.50;99.90;;;;;;4965278;28;20225;-67
2021/10/07 06:16:19;;;;;;;0.80;0.80;;;13.50;99.90;;;;;;4954407;28;20703;-68
2021/10/07 06:18:46;;;;;;;0.80;0.80;;;13.50;99.90;;;;;;4957522;28;20237;-67
2021/10/07 06:21:14;;;;;;;1.90;0.82;;;13.50;99.90;;;;;;4956368;28;20218;-67
2021/10/07 06:23:42;;;;;;;0.82;0.82;;;13.60;99.90;;;;;;4967670;28;20279;-66
2021/10/07 06:26:10;;;;;;;0.88;0.88;;;13.50;99.90;;;;;;4960458;28;20297;-67
2021/10/07 06:28:37;;;;;;;1.13;1.13;;;13.50;99.90;;;;;;4971886;28;20283;-66
2021/10/07 06:31:05;;;;;;;0.80;0.80;;;13.50;99.90;;;;;;4963789;28;20252;-66
2021/10/07 06:33:32;;;;;;;0.60;0.60;;;13.60;99.90;;;;;;4975571;28;20245;-67
2021/10/07 06:35:59;;;;;;;0.75;0.75;;;13.60;99.90;;;;;;4964365;28;20643;-67
2021/10/07 06:38:27;;;;;;;0.90;0.90;;;13.70;99.90;;;;;;4968398;28;20228;-68
2021/10/07 06:40:54;;;;;;;0.85;0.85;;;13.80;99.90;;;;;;4960421;28;20233;-66
2021/10/07 06:43:21;;;;;;;0.80;0.80;;;13.80;99.90;;;;;;4964084;28;20229;-67
2021/10/07 06:45:49;;;;;;;0.77;0.77;;;13.90;99.90;;;;;;4964677;28;20586;-66
2021/10/07 06:48:18;;;;;;;0.90;0.90;;;13.90;99.90;;;;;;4954158;28;20225;-66
2021/10/07 06:50:45;;;;;;;0.88;0.88;;;14.00;99.90;;;;;;4974232;28;20230;-67
2021/10/07 06:53:12;;;;;;;0.80;0.80;;;14.00;99.90;;;;;;4970298;28;20233;-67
2021/10/07 06:55:39;;;;;;;0.88;0.88;;;14.00;99.90;;;;;;4970456;28;20644;-66
2021/10/07 06:58:07;;;;;;;0.98;0.95;;;14.10;99.90;;;;;;4957156;28;20234;-66
2021/10/07 07:00:34;;;;;;;0.85;0.85;;;14.20;99.90;;;;;;4953034;28;20305;-66
2021/10/07 07:03:01;;;;;;;0.85;0.85;;;14.20;99.90;;;;;;4956602;28;20220;-65
2021/10/07 07:05:29;;;;;;;0.90;0.90;;;14.20;99.90;;;;;;4953896;28;20234;-66
2021/10/07 07:07:56;;;;;;;0.73;0.73;;;14.30;99.90;;;;;;4963872;28;20318;-65
2021/10/07 07:10:23;;;;;;;1.23;0.82;;;14.30;99.90;;;;;;4947530;28;20230;-67
2021/10/07 07:12:52;;;;;;;0.80;0.80;;;14.30;99.90;;;;;;4953486;28;20224;-66
2021/10/07 07:15:21;;;;;;;0.70;0.70;;;14.40;99.90;;;;;;4953560;28;20225;-66
2021/10/07 07:17:48;;;;;;;0.90;0.90;;;14.50;99.90;;;;;;4952611;28;20229;-66
2021/10/07 07:20:16;;;;;;;0.60;0.60;;;14.60;99.90;;;;;;4967614;28;20233;-66
2021/10/07 07:22:44;;;;;;;0.70;0.70;;;14.80;99.90;;;;;;4954314;28;20884;-65
2021/10/07 07:25:11;;;;;;;0.98;0.70;;;14.90;99.90;;;;;;4975003;28;20228;-65
2021/10/07 07:27:38;;;;;;;0.77;0.77;;;15.00;99.90;;;;;;4957661;28;20279;-66
2021/10/07 07:30:07;;;;;;;0.70;0.70;;;15.10;99.90;;;;;;4960627;28;20241;-66
2021/10/07 07:32:34;;;;;;;1.38;0.75;;;15.50;99.90;;;;;;4954067;28;21032;-66
2021/10/07 07:35:01;;;;;;;0.77;0.77;;;15.80;99.90;;;;;;4956576;28;20768;-67
2021/10/07 07:37:28;;;;;;;1.00;0.70;;;15.80;99.90;;;;;;4952114;28;20225;-66
2021/10/07 07:39:57;;;;;;;0.85;0.85;;;15.70;99.90;;;;;;4960127;28;20275;-66
2021/10/07 07:42:25;;;;;;;1.05;0.65;;;15.60;99.90;;;;;;4961679;28;20229;-66
2021/10/07 07:44:52;;;;;;;0.90;0.90;;;15.50;99.90;;;;;;4949344;28;20226;-68
2021/10/07 07:47:21;;;;;;;0.88;0.88;;;15.40;99.90;;;;;;4957699;28;20224;-66
2021/10/07 07:49:48;;;;;;;0.85;0.85;;;15.50;99.90;;;;;;4954716;28;20232;-66
2021/10/07 07:52:15;;;;;;;1.45;0.95;;;15.60;99.90;;;;;;4955279;28;20316;-67
2021/10/07 07:54:43;;;;;;;0.68;0.68;;;15.70;99.90;;;;;;4962239;28;20233;-66
2021/10/07 07:57:11;;;;;;;0.80;0.80;;;15.90;99.90;;;;;;4953335;28;21085;-66
2021/10/07 07:59:38;;;;;;;0.90;0.90;;;15.90;99.90;;;;;;4950210;28;20227;-66
2021/10/07 08:02:05;;;;;;;0.65;0.65;;;16.00;99.90;;;;;;4954291;28;20314;-66
2021/10/07 08:04:33;;;;;;;0.70;0.70;;;16.20;99.90;;;;;;4954010;28;20280;-66
2021/10/07 08:07:00;;;;;;;1.02;0.60;;;16.70;99.90;;;;;;4968835;28;20795;-66
2021/10/07 08:09:27;;;;;;;0.80;0.80;;;17.30;99.90;;;;;;4957567;28;20257;-67
2021/10/07 08:11:54;;;;;;;0.70;0.70;;;17.40;99.90;;;;;;4958771;28;20230;-67
2021/10/07 08:14:23;;;;;;;0.77;0.77;;;17.90;99.90;;;;;;4961641;28;20885;-67
2021/10/07 08:16:50;;;;;;;0.80;0.80;;;18.10;99.90;;;;;;4957060;28;20797;-66
2021/10/07 08:19:17;;;;;;;0.75;0.75;;;18.30;99.90;;;;;;4953985;28;20225;-67
2021/10/07 08:21:44;;;;;;;0.80;0.80;;;18.30;99.90;;;;;;4955400;28;20232;-67
2021/10/07 08:24:12;;;;;;;0.60;0.60;;;18.20;99.90;;;;;;4961136;28;20239;-67
2021/10/07 08:26:39;;;;;;;0.57;0.57;;;18.60;99.90;;;;;;4958069;28;20241;-66
2021/10/07 08:29:07;;;;;;;0.60;0.60;;;19.30;99.90;;;;;;4971434;28;20291;-67
2021/10/07 08:31:36;;;;;;;0.80;0.80;;;20.00;99.90;;;;;;4949837;28;20743;-66
2021/10/07 08:34:03;;;;;;;0.77;0.77;;;20.50;99.90;;;;;;4952659;28;20233;-67
2021/10/07 08:36:32;;;;;;;0.60;0.60;;;20.40;99.90;;;;;;4958857;28;20225;-67
2021/10/07 08:38:59;;;;;;;0.70;0.70;;;20.00;99.90;;;;;;4953702;28;20312;-67
2021/10/07 08:41:26;;;;;;;0.80;0.80;;;19.50;99.90;;;;;;4958780;28;20229;-66
2021/10/07 08:43:53;;;;;;;1.38;0.68;;;18.90;99.90;;;;;;4955279;28;20274;-67
2021/10/07 08:46:21;;;;;;;0.50;0.50;;;18.50;99.90;;;;;;4945206;28;20256;-66
2021/10/07 08:48:51;;;;;;;0.70;0.70;;;18.30;99.90;;;;;;4952359;28;20229;-67
2021/10/07 08:51:18;;;;;;;0.57;0.57;;;18.00;99.90;;;;;;4959724;28;20229;-66
2021/10/07 08:53:45;;;;;;;0.90;0.82;;;17.90;99.90;;;;;;4970689;28;20364;-67
2021/10/07 08:56:12;;;;;;;0.50;0.50;;;17.80;99.90;;;;;;4959508;28;20225;-66
2021/10/07 08:58:40;;;;;;;0.65;0.65;;;17.70;99.90;;;;;;4953120;28;20252;-66
2021/10/07 09:01:07;;;;;;;0.82;0.57;;;17.60;99.90;;;;;;4958617;28;20691;-66
2021/10/07 09:03:41;;;;;;;1.05;0.50;;;17.40;99.90;;;;;;4957589;28;20596;-66
2021/10/07 09:06:12;;;;;;;0.60;0.60;;;17.20;99.90;;;;;;4957524;28;20229;-66
2021/10/07 09:08:47;;;;;;;0.70;0.70;;;17.20;99.90;;;;;;4954997;22;20213;-74
2021/10/07 09:11:26;;;;;;;1.00;0.73;;;17.30;99.90;;;;;;4972430;28;20725;-76
2021/10/07 09:14:00;;;;;;;0.60;0.60;;;17.90;99.90;;;;;;4976931;28;20225;-73
2021/10/07 09:16:30;;;;;;;1.38;0.60;;;18.70;99.90;;;;;;4973707;28;20253;-75
2021/10/07 09:19:12;;;;;;;0.68;0.68;;;19.50;99.90;;;;;;4974667;28;20597;-76
2021/10/07 09:21:40;;;;;;;0.93;0.65;;;20.40;99.90;;;;;;4955055;28;20726;-74
2021/10/07 09:24:27;;;;;;;0.70;0.70;;;20.50;99.90;;;;;;4958400;28;20623;-73
2021/10/07 09:26:54;;;;;;;0.50;0.50;;;21.00;99.90;;;;;;4952201;28;20500;-75
2021/10/07 09:29:32;;;;;;;0.60;0.60;;;21.00;99.90;;;;;;4955045;28;20917;-76
2021/10/07 09:32:00;;;;;;;0.47;0.47;;;21.00;99.90;;;;;;4952578;28;20225;-75
2021/10/07 09:34:39;;;;;;;0.50;0.50;;;21.00;99.90;;;;;;4974863;28;20229;-75
2021/10/07 09:37:28;;;;;;;0.70;0.50;;;21.20;99.90;;;;;;4946751;28;22112;-75
2021/10/07 09:39:57;;;;;;;0.60;0.60;;;21.60;99.90;;;;;;4958388;28;20275;-75
2021/10/07 09:42:27;;;;;;;0.55;0.55;;;21.80;99.90;;;;;;4953681;28;20599;-76
2021/10/07 09:45:02;;;;;;;0.40;0.40;;;21.80;99.90;;;;;;4953853;28;20221;-75
2021/10/07 09:47:31;;;;;;;0.50;0.50;;;21.90;99.90;;;;;;4952561;28;20317;-75
2021/10/07 09:50:11;;;;;;;0.63;0.40;;;22.00;99.90;;;;;;4959268;28;20279;-76
2021/10/07 09:52:40;;;;;;;0.73;0.50;;;21.70;99.90;;;;;;4958900;28;20233;-73
2021/10/07 09:55:12;;;;;;;0.60;0.60;;;20.70;99.90;;;;;;4959536;28;20236;-75
2021/10/07 09:57:55;;;;;;;0.55;0.55;;;19.80;99.90;;;;;;4949285;28;20225;-74
2021/10/07 10:00:25;;;;;;;0.52;0.52;;;19.30;99.90;;;;;;4956522;28;20657;-76
2021/10/07 10:02:54;;;;;;;0.50;0.50;;;19.30;99.90;;;;;;4955483;28;20349;-73
2021/10/07 10:05:21;;;;;;;0.47;0.47;;;19.60;99.90;;;;;;4951593;28;20312;-74
2021/10/07 10:07:49;;;;;;;1.00;0.60;;;20.00;99.90;;;;;;4963908;28;20301;-75
2021/10/07 10:10:17;;;;;;;1.75;0.60;;;19.70;99.90;;;;;;4963150;28;20289;-74
2021/10/07 10:12:44;;;;;;;1.30;0.73;;;19.30;99.90;;;;;;4959177;28;20975;-75
2021/10/07 10:15:12;;;;;;;0.93;0.50;;;19.00;99.90;;;;;;4957366;28;20229;-76
2021/10/07 10:17:40;;;;;;;0.50;0.50;;;18.90;99.90;;;;;;4967984;28;20275;-73
2021/10/07 10:20:11;;;;;;;0.47;0.47;;;18.70;99.90;;;;;;4966138;28;20686;-74
2021/10/07 10:22:38;;;;;;;1.30;0.70;;;18.50;99.90;;;;;;4948043;28;20237;-75
2021/10/07 10:25:07;;;;;;;0.77;0.77;;;18.40;99.90;;;;;;4950291;28;20260;-76
2021/10/07 10:27:49;;;;;;;0.50;0.50;;;18.50;99.90;;;;;;4956462;28;20226;-74
2021/10/07 10:30:26;;;;;;;1.80;0.60;;;19.30;99.90;;;;;;4955728;28;20225;-74
2021/10/07 10:32:55;;;;;;;2.47;0.65;;;20.10;99.90;;;;;;4967336;28;20240;-74
2021/10/07 10:35:37;;;;;;;0.57;0.50;;;20.50;99.90;;;;;;4954379;28;20863;-74
2021/10/07 10:38:07;;;;;;;0.60;0.60;;;20.30;99.90;;;;;;4958832;28;20788;-76
2021/10/07 10:40:36;;;;;;;1.05;0.60;;;20.00;99.90;;;;;;4955944;28;20237;-74
2021/10/07 10:43:26;;;;;;;0.70;0.70;;;20.30;99.90;;;;;;4950983;28;20241;-75
2021/10/07 10:46:15;;;;;;;0.57;0.57;;;20.50;99.90;;;;;;4954762;28;20240;-75
2021/10/07 10:48:56;;;;;;;0.57;0.57;;;20.70;99.80;;;;;;4957490;28;20230;-75
2021/10/07 10:51:31;;;;;;;0.50;0.50;;;20.50;99.60;;;;;;4959658;28;20306;-75
2021/10/07 10:54:02;;;;;;;0.63;0.50;;;20.90;99.90;;;;;;4957917;28;20754;-74
2021/10/07 10:56:40;;;;;;;0.45;0.45;;;21.00;99.90;;;;;;4960835;28;20213;-75
2021/10/07 10:59:21;;;;;;;0.60;0.60;;;20.50;99.90;;;;;;4964227;28;20371;-76
2021/10/07 11:02:22;;;;;;;0.50;0.50;;;20.20;99.90;;;;;;4961777;28;20277;-75
2021/10/07 11:04:50;;;;;;;2.83;0.50;;;19.90;99.90;;;;;;4967631;28;20220;-75
2021/10/07 11:07:19;;;;;;;1.65;0.50;;;19.70;99.90;;;;;;4952769;28;20289;-75
2021/10/07 11:10:01;;;;;;;0.40;0.40;;;19.60;99.90;;;;;;4957911;28;21035;-75
2021/10/07 11:12:41;;;;;;;1.55;0.60;;;19.60;99.90;;;;;;4956417;28;20221;-75
2021/10/07 11:15:09;;;;;;;2.50;0.45;;;19.90;99.90;;;;;;4949053;28;20951;-75
2021/10/07 11:17:37;;;;;;;0.50;0.50;;;20.00;99.90;;;;;;4952572;28;20226;-74
2021/10/07 11:20:05;;;;;;;0.65;0.40;;;20.00;99.90;;;;;;4947231;28;20233;-76
2021/10/07 11:22:32;;;;;;;0.77;0.60;;;20.60;99.90;;;;;;4953993;28;20777;-76
2021/10/07 11:24:59;;;;;;;0.30;0.30;;;21.10;99.10;;;;;;4954765;28;20312;-75
2021/10/07 11:27:37;;;;;;;0.40;0.40;;;21.30;98.60;;;;;;4958194;28;22250;-75
2021/10/07 11:30:07;;;;;;;0.43;0.40;;;21.40;98.20;;;;;;4945863;28;20233;-76
2021/10/07 11:32:34;;;;;;;0.40;0.40;;;21.50;98.40;;;;;;4955955;28;20230;-75
2021/10/07 11:35:04;;;;;;;1.33;0.40;;;21.30;98.70;;;;;;4953015;28;20226;-76
2021/10/07 11:37:57;;;;;;;0.60;0.60;;;20.90;97.90;;;;;;4956739;28;20226;-76
2021/10/07 11:40:27;;;;;;;0.40;0.40;;;20.70;97.90;;;;;;4959862;28;20240;-76
2021/10/07 11:42:57;;;;;;;1.38;0.40;;;20.40;99.00;;;;;;4953313;28;20344;-74
2021/10/07 11:45:26;;;;;;;0.40;0.40;;;20.10;98.10;;;;;;4950706;28;20287;-74
2021/10/07 11:47:55;;;;;;;0.50;0.50;;;19.90;99.20;;;;;;4963685;28;20236;-74
2021/10/07 11:50:24;;;;;;;0.75;0.35;;;19.90;99.30;;;;;;4955684;28;20236;-75
2021/10/07 11:52:54;;;;;;;0.50;0.50;;;20.10;98.80;;;;;;4950708;28;20730;-74
2021/10/07 11:55:23;;;;;;;0.40;0.40;;;20.70;99.00;;;;;;4954772;28;20225;-74
2021/10/07 11:57:52;;;;;;;0.60;0.60;;;21.20;98.10;;;;;;4959286;28;20535;-74
2021/10/07 12:00:45;;;;;;;0.40;0.40;;;21.70;97.30;;;;;;4949268;28;20232;-74
2021/10/07 12:03:17;;;;;;;0.52;0.40;;;22.00;95.90;;;;;;4954036;28;20225;-73
2021/10/07 12:05:46;;;;;;;0.40;0.30;;;22.00;96.50;;;;;;4950909;28;20382;-75
2021/10/07 12:08:17;;;;;;;0.50;0.40;;;21.40;97.40;;;;;;4947232;28;20733;-73
2021/10/07 12:10:46;;;;;;;0.30;0.30;;;21.10;96.70;;;;;;4951280;28;20225;-75
2021/10/07 12:13:17;;;;;;;0.40;0.40;;;21.40;96.80;;;;;;4946663;28;20224;-75
2021/10/07 12:15:49;;;;;;;0.30;0.30;;;21.40;97.50;;;;;;4953281;28;20241;-75
2021/10/07 12:18:17;;;;;;;0.40;0.40;;;21.40;97.20;;;;;;4947793;28;20796;-75
2021/10/07 12:21:01;;;;;;;0.30;0.30;;;21.70;96.60;;;;;;4957885;28;20257;-75
2021/10/07 12:23:28;;;;;;;0.50;0.50;;;21.90;95.70;;;;;;4950018;28;20703;-75
2021/10/07 12:25:57;;;;;;;0.30;0.30;;;21.80;94.60;;;;;;4955180;28;20270;-75
2021/10/07 12:28:25;;;;;;;0.60;0.50;;;21.80;94.60;;;;;;4952895;28;20711;-74
2021/10/07 12:31:00;;;;;;;0.30;0.30;;;21.80;95.20;;;;;;4945530;28;20745;-74
2021/10/07 12:33:30;;;;;;;0.35;0.35;;;21.80;95.60;;;;;;4948883;28;20588;-74
2021/10/07 12:36:03;;;;;;;1.45;0.40;;;21.70;96.30;;;;;;4951466;28;20237;-74
2021/10/07 12:38:46;;;;;;;0.38;0.38;;;21.90;97.20;;;;;;4953687;28;20237;-74
2021/10/07 12:41:13;;;;;;;0.63;0.60;;;21.70;96.60;;;;;;4954045;28;20580;-74
2021/10/07 12:43:52;;;;;;;0.40;0.40;;;21.40;96.60;;;;;;4956261;28;20213;-73
2021/10/07 12:46:21;;;;;;;0.57;0.40;;;21.20;96.30;;;;;;4952467;28;20287;-74
2021/10/07 12:48:50;;;;;;;0.50;0.50;;;21.00;96.10;;;;;;4957959;28;20232;-75
2021/10/07 12:51:19;;;;;;;0.40;0.40;;;20.80;96.30;;;;;;4956213;28;20719;-75
2021/10/07 12:53:47;;;;;;;0.40;0.40;;;20.50;96.70;;;;;;4953669;28;21344;-75
2021/10/07 12:56:15;;;;;;;0.52;0.52;;;20.10;97.40;;;;;;4953692;28;20276;-73
2021/10/07 12:58:51;;;;;;;0.52;0.50;;;20.30;97.30;;;;;;4957158;28;20248;-74